Time;durP1;ratioP1;P1;durP2;ratioP2;P2;SDS_P1;SDS_P2;PMS_P1;PMS_P2;Temp;Humidity;BMP_temperature;BMP_pressure;BME280_temperature;BME280_humidity;BME280_pressure;Samples;Min_cycle;Max_cycle;Signal;HPM_P1;HPM_P2
2022/12/26 00:00:12;;;;;;;20.70;9.55;;;11.00;97.60;;;;;;5133744;28;20379;-73
2022/12/26 00:02:38;;;;;;;22.77;9.43;;;11.00;97.60;;;;;;5115930;28;20027;-74
2022/12/26 00:05:04;;;;;;;20.27;9.93;;;10.90;97.60;;;;;;5132815;28;20027;-74
2022/12/26 00:07:29;;;;;;;22.23;10.02;;;10.90;97.80;;;;;;5133666;28;20494;-74
2022/12/26 00:09:55;;;;;;;22.38;9.85;;;10.90;97.90;;;;;;5115521;28;20031;-73
2022/12/26 00:12:21;;;;;;;21.73;9.20;;;11.00;97.80;;;;;;5132691;28;20094;-74
2022/12/26 00:14:46;;;;;;;23.25;9.80;;;11.00;97.80;;;;;;5132591;28;20034;-74
2022/12/26 00:17:12;;;;;;;22.60;10.90;;;11.00;97.80;;;;;;5132672;28;20042;-74
2022/12/26 00:19:38;;;;;;;21.42;10.02;;;11.00;97.80;;;;;;5098552;28;20058;-74
2022/12/26 00:22:03;;;;;;;27.45;10.75;;;11.00;97.70;;;;;;5133556;28;20039;-74
2022/12/26 00:24:29;;;;;;;21.70;8.95;;;11.00;97.70;;;;;;5133507;28;20019;-74
2022/12/26 00:26:54;;;;;;;24.42;10.68;;;11.00;97.70;;;;;;5133479;28;20027;-74
2022/12/26 00:29:21;;;;;;;24.95;9.90;;;11.00;97.60;;;;;;5132437;28;20095;-74
2022/12/26 00:31:48;;;;;;;25.05;10.32;;;10.90;97.50;;;;;;5136847;28;20077;-74
2022/12/26 00:34:14;;;;;;;27.40;11.18;;;10.90;97.60;;;;;;5137191;28;20108;-74
2022/12/26 00:36:40;;;;;;;24.13;10.65;;;10.90;97.50;;;;;;5136419;28;20020;-73
2022/12/26 00:39:06;;;;;;;28.52;11.40;;;10.90;97.90;;;;;;5119305;28;20394;-73
2022/12/26 00:41:32;;;;;;;23.40;10.30;;;11.00;97.60;;;;;;5137174;28;20035;-74
2022/12/26 00:43:58;;;;;;;26.20;11.00;;;11.00;97.50;;;;;;5136090;28;20420;-73
2022/12/26 00:46:25;;;;;;;17.58;8.70;;;11.00;97.50;;;;;;5137021;28;20057;-74
2022/12/26 00:48:50;;;;;;;27.25;11.68;;;11.00;97.50;;;;;;5137028;28;20024;-74
2022/12/26 00:51:16;;;;;;;29.88;11.40;;;11.00;97.50;;;;;;5136957;28;20042;-74
2022/12/26 00:53:42;;;;;;;24.27;10.38;;;11.00;97.60;;;;;;5135870;28;20032;-74
2022/12/26 00:56:08;;;;;;;23.80;10.98;;;11.00;97.70;;;;;;5135942;28;20024;-74
2022/12/26 00:58:34;;;;;;;26.35;10.32;;;11.00;97.60;;;;;;5118905;28;20375;-74
2022/12/26 01:01:09;;;;;;;25.67;11.20;;;11.00;97.70;;;;;;5136797;28;20023;-74
2022/12/26 01:03:34;;;;;;;25.52;10.55;;;11.00;97.60;;;;;;5136734;28;20034;-74
2022/12/26 01:06:01;;;;;;;30.05;12.00;;;10.90;97.60;;;;;;5101796;28;20028;-74
2022/12/26 01:08:27;;;;;;;26.65;11.75;;;11.00;97.60;;;;;;5135717;28;20024;-74
2022/12/26 01:10:52;;;;;;;28.15;11.27;;;11.00;97.50;;;;;;5136543;28;20039;-74
2022/12/26 01:13:19;;;;;;;26.98;11.15;;;11.00;97.50;;;;;;5136586;28;20032;-74
2022/12/26 01:15:50;;;;;;;25.10;11.10;;;11.00;97.50;;;;;;5135499;28;20036;-74
2022/12/26 01:18:15;;;;;;;29.23;11.75;;;11.00;97.50;;;;;;5136215;28;20051;-74
2022/12/26 01:20:41;;;;;;;28.52;11.95;;;11.00;97.40;;;;;;5118359;28;20090;-74
2022/12/26 01:23:06;;;;;;;27.85;11.63;;;11.00;97.40;;;;;;5135324;28;20042;-74
2022/12/26 01:25:32;;;;;;;26.30;10.77;;;10.90;97.30;;;;;;5118286;28;20030;-74
2022/12/26 01:27:58;;;;;;;30.40;12.50;;;11.00;97.40;;;;;;5136289;28;20039;-74
2022/12/26 01:30:23;;;;;;;33.50;12.43;;;11.00;97.40;;;;;;5135328;28;20031;-74
2022/12/26 01:32:49;;;;;;;28.80;11.75;;;11.00;97.30;;;;;;5136114;28;20027;-74
2022/12/26 01:35:15;;;;;;;29.75;12.35;;;11.00;97.30;;;;;;5135232;28;20024;-74
2022/12/26 01:37:40;;;;;;;28.52;11.75;;;11.00;97.30;;;;;;5135048;28;20027;-74
2022/12/26 01:40:07;;;;;;;25.30;10.73;;;11.00;97.30;;;;;;5134932;28;20024;-74
2022/12/26 01:42:39;;;;;;;32.17;12.23;;;10.90;97.20;;;;;;5134177;28;20116;-74
2022/12/26 01:45:25;;;;;;;29.27;12.63;;;10.90;97.30;;;;;;5135967;28;20031;-74
2022/12/26 01:48:15;;;;;;;32.45;13.45;;;10.90;97.20;;;;;;5135951;28;20054;-74
2022/12/26 01:51:02;;;;;;;33.38;13.25;;;10.90;97.20;;;;;;5135830;28;20032;-74
2022/12/26 01:53:38;;;;;;;33.67;13.75;;;10.90;97.20;;;;;;5134717;28;20024;-74
2022/12/26 01:56:12;;;;;;;35.10;13.55;;;10.90;97.20;;;;;;5134747;28;20020;-73
2022/12/26 01:58:44;;;;;;;30.83;12.85;;;10.90;97.20;;;;;;5135723;28;20040;-74
2022/12/26 02:01:11;;;;;;;36.65;15.02;;;10.90;97.10;;;;;;5135685;28;20019;-74
2022/12/26 02:06:24;;;;;;;34.58;14.10;;;10.90;97.10;;;;;;5135759;28;20038;-74
2022/12/26 02:08:50;;;;;;;31.67;13.27;;;10.90;97.00;;;;;;5135372;28;20051;-74
2022/12/26 02:11:27;;;;;;;32.08;13.40;;;10.90;97.00;;;;;;5134471;28;20030;-74
2022/12/26 02:13:54;;;;;;;34.17;13.55;;;10.90;97.00;;;;;;5135311;28;20027;-74
2022/12/26 02:16:20;;;;;;;31.35;12.73;;;10.90;96.90;;;;;;5135320;28;20012;-74
2022/12/26 02:18:46;;;;;;;28.13;12.10;;;10.90;97.00;;;;;;5117091;28;20053;-74
2022/12/26 02:21:50;;;;;;;28.95;12.68;;;10.80;96.90;;;;;;5135196;28;20071;-73
2022/12/26 02:24:49;;;;;;;29.08;12.95;;;10.80;96.90;;;;;;5134127;28;20023;-74
2022/12/26 02:27:20;;;;;;;30.38;12.90;;;10.80;96.90;;;;;;5134062;28;20035;-74
2022/12/26 02:29:45;;;;;;;27.17;11.80;;;10.80;96.90;;;;;;5135106;28;20026;-74
2022/12/26 02:32:39;;;;;;;29.48;12.20;;;10.80;96.90;;;;;;5133838;28;20063;-74
2022/12/26 02:35:41;;;;;;;28.05;12.05;;;10.80;96.90;;;;;;5133996;28;20093;-74
2022/12/26 02:38:32;;;;;;;30.60;12.32;;;10.80;96.80;;;;;;5133922;28;20051;-74
2022/12/26 02:41:17;;;;;;;30.98;12.77;;;10.80;96.80;;;;;;5135009;28;20079;-74
2022/12/26 02:43:51;;;;;;;27.65;10.75;;;10.70;96.80;;;;;;5134922;28;20051;-74
2022/12/26 02:49:29;;;;;;;29.52;13.25;;;10.70;96.80;;;;;;5134827;28;20091;-74
2022/12/26 03:13:11;;;;;;;22.70;10.63;;;10.70;97.30;;;;;;5133723;28;20035;-74
2022/12/26 03:18:54;;;;;;;23.73;10.10;;;10.70;97.30;;;;;;5134174;28;20058;-74
2022/12/26 03:21:23;;;;;;;21.70;10.15;;;10.70;96.90;;;;;;5134237;28;20023;-74
2022/12/26 03:23:52;;;;;;;22.83;10.20;;;10.70;96.80;;;;;;5134160;28;20039;-74
2022/12/26 03:26:40;;;;;;;21.17;9.48;;;10.70;96.80;;;;;;5116205;28;20020;-74
2022/12/26 03:32:10;;;;;;;19.95;9.32;;;10.70;96.80;;;;;;5134148;28;20038;-74
2022/12/26 03:34:41;;;;;;;19.77;9.75;;;10.70;96.80;;;;;;5134033;28;20039;-74
2022/12/26 03:37:18;;;;;;;18.75;9.23;;;10.70;96.70;;;;;;5134067;28;20039;-74
2022/12/26 04:19:23;;;;;;;8.55;4.93;;;10.60;96.70;;;;;;5137609;28;20059;-74
2022/12/26 04:44:54;;;;;;;8.27;4.15;;;10.50;96.00;;;;;;5136493;28;20119;-74
2022/12/26 04:47:20;;;;;;;8.43;4.78;;;10.50;95.90;;;;;;5137103;28;20024;-73
2022/12/26 04:55:15;;;;;;;9.13;4.88;;;10.40;95.80;;;;;;5137172;28;20060;-74
2022/12/26 04:57:41;;;;;;;7.72;4.43;;;10.50;96.10;;;;;;5118998;28;20020;-74
2022/12/26 05:00:07;;;;;;;7.55;3.78;;;10.50;95.60;;;;;;5136848;28;20104;-73
2022/12/26 05:10:46;;;;;;;7.60;3.85;;;10.40;95.60;;;;;;5136891;28;20114;-74
2022/12/26 05:13:12;;;;;;;6.95;3.53;;;10.30;95.60;;;;;;5136522;28;20028;-73
2022/12/26 05:29:30;;;;;;;6.82;3.63;;;10.40;95.30;;;;;;5135731;28;20047;-73
2022/12/26 05:31:55;;;;;;;6.65;3.92;;;10.30;95.20;;;;;;5118201;28;20482;-74
2022/12/26 05:34:21;;;;;;;9.23;3.85;;;10.30;95.20;;;;;;5135235;28;20032;-74
2022/12/26 05:36:50;;;;;;;7.55;3.50;;;10.30;95.30;;;;;;5135238;28;20045;-74
2022/12/26 05:39:16;;;;;;;7.88;4.13;;;10.30;95.40;;;;;;5135060;28;20023;-74
2022/12/26 05:41:42;;;;;;;8.40;4.22;;;10.30;95.50;;;;;;5136036;28;20028;-73
2022/12/26 05:44:08;;;;;;;8.25;4.03;;;10.30;95.40;;;;;;5101103;28;20061;-74
2022/12/26 05:46:35;;;;;;;8.18;3.90;;;10.30;95.40;;;;;;5134993;28;20050;-74
2022/12/26 05:49:01;;;;;;;8.73;4.20;;;10.30;95.20;;;;;;5135885;28;20054;-74
2022/12/26 05:51:26;;;;;;;7.55;3.92;;;10.30;95.20;;;;;;5134896;28;20020;-74
2022/12/26 05:53:52;;;;;;;6.10;3.55;;;10.30;95.30;;;;;;5117748;28;20031;-74
2022/12/26 05:56:18;;;;;;;7.30;4.05;;;10.30;95.60;;;;;;5134809;28;20035;-74
2022/12/26 05:58:45;;;;;;;6.28;3.63;;;10.30;95.20;;;;;;5135710;28;20019;-74
2022/12/26 06:01:17;;;;;;;7.57;3.88;;;10.30;95.10;;;;;;5134662;28;20030;-73
2022/12/26 06:03:46;;;;;;;10.25;4.03;;;10.30;95.10;;;;;;5134662;28;20027;-74
2022/12/26 06:06:13;;;;;;;9.32;4.25;;;10.20;95.10;;;;;;5135547;28;20406;-73
2022/12/26 06:08:39;;;;;;;7.55;3.70;;;10.20;95.10;;;;;;5134472;28;20049;-73
2022/12/26 06:11:06;;;;;;;8.55;3.47;;;10.20;95.20;;;;;;5134584;28;20031;-73
2022/12/26 06:13:32;;;;;;;7.95;3.60;;;10.20;95.10;;;;;;5135362;28;20459;-74
2022/12/26 06:15:58;;;;;;;6.70;3.58;;;10.20;95.10;;;;;;5134337;28;20088;-74
2022/12/26 06:18:24;;;;;;;9.73;4.28;;;10.20;95.10;;;;;;5117077;28;20099;-74
2022/12/26 06:20:50;;;;;;;7.10;3.60;;;10.20;95.00;;;;;;5135395;28;20087;-74
2022/12/26 06:23:16;;;;;;;7.22;3.50;;;10.20;94.90;;;;;;5134289;28;20087;-74
2022/12/26 06:25:41;;;;;;;6.63;3.17;;;10.10;95.10;;;;;;5117225;28;20028;-74
2022/12/26 06:28:07;;;;;;;8.10;3.25;;;10.10;95.20;;;;;;5133917;28;20027;-74
2022/12/26 06:30:33;;;;;;;8.02;3.10;;;10.10;95.40;;;;;;5100109;28;20019;-74
2022/12/26 06:32:58;;;;;;;7.07;3.20;;;10.10;95.50;;;;;;5134006;28;20115;-74
2022/12/26 06:35:24;;;;;;;4.38;2.22;;;10.10;95.50;;;;;;5117017;28;20039;-73
2022/12/26 06:37:49;;;;;;;5.10;2.47;;;10.10;95.50;;;;;;5133981;28;20045;-74
2022/12/26 06:40:15;;;;;;;5.53;2.85;;;10.10;95.60;;;;;;5116884;28;20031;-75
2022/12/26 06:42:41;;;;;;;5.97;2.88;;;10.10;95.60;;;;;;5133892;28;20053;-74
2022/12/26 06:45:07;;;;;;;6.85;3.33;;;10.10;95.60;;;;;;5134752;28;20091;-74
2022/12/26 06:47:32;;;;;;;5.35;2.92;;;10.20;95.60;;;;;;5116937;28;20490;-74
2022/12/26 06:49:58;;;;;;;7.85;3.63;;;10.20;95.40;;;;;;5116644;28;20044;-75
2022/12/26 06:52:23;;;;;;;4.00;2.47;;;10.20;95.40;;;;;;5116806;28;20096;-74
2022/12/26 06:54:49;;;;;;;5.75;3.00;;;10.20;95.30;;;;;;5133575;28;20030;-74
2022/12/26 06:57:15;;;;;;;6.22;2.85;;;10.20;95.30;;;;;;5134586;28;20039;-73
2022/12/26 06:59:40;;;;;;;6.88;3.80;;;10.20;95.30;;;;;;5133552;28;20104;-74
2022/12/26 07:02:08;;;;;;;7.78;3.38;;;10.30;95.20;;;;;;5099608;28;20032;-74
2022/12/26 07:04:33;;;;;;;7.88;3.65;;;10.30;95.20;;;;;;5133506;28;20504;-74
2022/12/26 07:06:59;;;;;;;7.65;3.30;;;10.30;95.00;;;;;;5116401;28;20032;-74
2022/12/26 07:09:25;;;;;;;7.53;3.45;;;10.30;94.90;;;;;;5133264;28;20054;-74
2022/12/26 07:11:50;;;;;;;6.10;2.63;;;10.30;94.80;;;;;;5099454;28;20223;-73
2022/12/26 07:14:16;;;;;;;6.35;2.65;;;10.30;95.10;;;;;;5133260;28;20034;-74
2022/12/26 07:16:43;;;;;;;6.72;3.30;;;10.20;94.60;;;;;;5134270;28;20054;-74
2022/12/26 07:19:11;;;;;;;6.03;2.70;;;10.20;94.60;;;;;;5134071;28;20047;-74
2022/12/26 07:21:37;;;;;;;4.18;2.42;;;10.20;94.60;;;;;;5116185;28;20024;-73
2022/12/26 07:24:02;;;;;;;5.82;3.10;;;10.20;94.60;;;;;;5133128;28;20038;-74
2022/12/26 07:26:28;;;;;;;6.72;2.60;;;10.20;94.60;;;;;;5133253;28;20031;-73
2022/12/26 07:28:56;;;;;;;6.82;2.92;;;10.20;94.60;;;;;;5099238;28;20043;-74
2022/12/26 07:31:22;;;;;;;3.17;2.17;;;10.10;94.50;;;;;;5134102;28;20049;-74
2022/12/26 07:33:49;;;;;;;6.50;2.67;;;10.10;94.50;;;;;;5133093;28;20038;-74
2022/12/26 07:36:15;;;;;;;6.00;3.13;;;10.10;94.60;;;;;;5133175;28;20027;-73
2022/12/26 07:38:41;;;;;;;5.10;3.03;;;10.10;94.60;;;;;;5133091;28;20023;-74
2022/12/26 07:43:50;;;;;;;5.00;2.88;;;10.00;94.60;;;;;;5134194;28;20071;-74
2022/12/26 07:46:16;;;;;;;6.90;2.75;;;10.00;94.60;;;;;;5133904;28;20024;-74
2022/12/26 07:48:42;;;;;;;4.20;2.33;;;10.00;94.60;;;;;;5133892;28;20028;-73
2022/12/26 07:51:08;;;;;;;3.72;2.28;;;10.00;94.60;;;;;;5134032;28;20026;-74
2022/12/26 07:53:33;;;;;;;4.22;2.47;;;10.10;94.60;;;;;;5132728;28;20043;-73
2022/12/26 07:55:59;;;;;;;5.05;2.28;;;10.00;94.50;;;;;;5098954;28;20035;-73
2022/12/26 07:58:26;;;;;;;5.05;3.33;;;10.00;94.50;;;;;;5133837;28;20023;-73
2022/12/26 08:00:52;;;;;;;6.63;2.78;;;10.10;94.50;;;;;;5133800;28;20023;-73
2022/12/26 08:03:18;;;;;;;6.90;2.70;;;10.10;94.40;;;;;;5133706;28;20087;-73
2022/12/26 08:05:48;;;;;;;3.88;2.47;;;10.10;94.40;;;;;;5132709;28;20031;-73
2022/12/26 08:08:14;;;;;;;3.88;1.83;;;10.00;94.30;;;;;;5133791;28;20039;-74
2022/12/26 08:10:40;;;;;;;4.55;2.72;;;10.00;94.30;;;;;;5133638;28;20019;-74
2022/12/26 08:13:05;;;;;;;5.22;2.65;;;10.00;94.50;;;;;;5133595;28;20046;-74
2022/12/26 08:15:31;;;;;;;4.53;1.70;;;10.00;94.40;;;;;;5132624;28;20020;-73
2022/12/26 08:17:57;;;;;;;4.00;2.60;;;10.10;94.40;;;;;;5132523;28;20016;-74
2022/12/26 08:20:22;;;;;;;4.22;2.17;;;10.10;94.40;;;;;;5115664;28;20019;-74
2022/12/26 08:22:48;;;;;;;8.63;2.80;;;10.10;94.30;;;;;;5132731;28;20039;-73
2022/12/26 08:25:14;;;;;;;3.97;2.42;;;10.10;94.40;;;;;;5132685;28;20039;-73
2022/12/26 08:27:39;;;;;;;3.45;2.58;;;10.10;94.30;;;;;;5132505;28;20024;-73
2022/12/26 08:30:05;;;;;;;5.38;2.53;;;10.10;94.20;;;;;;5115525;28;20031;-73
2022/12/26 08:32:31;;;;;;;5.20;2.30;;;10.10;94.30;;;;;;5132561;28;20030;-73
2022/12/26 08:34:57;;;;;;;5.57;2.55;;;10.20;94.10;;;;;;5098606;28;20095;-73
2022/12/26 08:37:23;;;;;;;3.72;2.08;;;10.20;94.10;;;;;;5133470;28;20030;-74
2022/12/26 08:39:51;;;;;;;4.45;2.22;;;10.20;93.90;;;;;;5132509;28;20020;-74
2022/12/26 08:42:17;;;;;;;3.65;2.15;;;10.20;93.80;;;;;;5132495;28;20079;-74
2022/12/26 08:44:43;;;;;;;3.97;1.83;;;10.20;93.80;;;;;;5133419;28;20028;-73
2022/12/26 08:47:09;;;;;;;6.57;2.33;;;10.30;93.70;;;;;;5133399;28;20054;-74
2022/12/26 08:49:34;;;;;;;4.88;2.42;;;10.40;93.80;;;;;;5133329;28;20040;-74
2022/12/26 08:52:00;;;;;;;3.55;2.20;;;10.80;93.60;;;;;;5134376;28;20027;-73
2022/12/26 08:54:25;;;;;;;5.78;2.13;;;10.90;93.00;;;;;;5136890;28;20114;-74
2022/12/26 08:56:51;;;;;;;3.88;2.20;;;11.00;92.50;;;;;;5119013;28;20024;-74
2022/12/26 08:59:17;;;;;;;3.35;2.03;;;11.00;92.30;;;;;;5136899;28;20036;-73
2022/12/26 09:01:43;;;;;;;3.67;2.22;;;10.90;92.60;;;;;;5137021;28;20027;-74
2022/12/26 09:04:08;;;;;;;4.53;2.35;;;10.90;92.60;;;;;;5135913;28;20031;-74
2022/12/26 09:06:36;;;;;;;2.78;1.58;;;10.80;92.70;;;;;;5135849;28;20028;-74
2022/12/26 09:09:03;;;;;;;3.35;1.90;;;10.80;92.90;;;;;;5136778;28;20024;-74
2022/12/26 09:11:29;;;;;;;3.17;1.80;;;10.80;93.10;;;;;;5136674;28;20079;-74
2022/12/26 09:13:57;;;;;;;3.95;1.77;;;11.00;93.00;;;;;;5135485;28;20035;-73
2022/12/26 09:16:26;;;;;;;2.60;1.67;;;11.30;92.30;;;;;;5136668;27;20072;-74
2022/12/26 09:18:55;;;;;;;6.18;1.85;;;11.50;91.70;;;;;;5136318;28;20048;-74
2022/12/26 09:21:21;;;;;;;5.88;1.67;;;11.60;91.50;;;;;;5136482;28;20084;-75
2022/12/26 09:23:46;;;;;;;5.07;1.88;;;11.90;91.20;;;;;;5136418;28;20024;-74
2022/12/26 09:26:15;;;;;;;4.45;1.90;;;12.10;90.90;;;;;;5136356;28;20481;-75
2022/12/26 09:28:40;;;;;;;4.28;1.52;;;12.20;90.00;;;;;;5136351;28;20020;-74
2022/12/26 09:31:11;;;;;;;2.72;1.52;;;11.90;90.10;;;;;;5135425;28;20027;-74
2022/12/26 09:33:37;;;;;;;4.65;1.70;;;11.70;90.30;;;;;;5135172;28;20053;-73
2022/12/26 09:36:14;;;;;;;3.35;1.70;;;11.50;90.80;;;;;;5135185;28;20027;-74
2022/12/26 09:38:40;;;;;;;3.28;1.42;;;11.50;91.00;;;;;;5136176;28;20019;-74
2022/12/26 09:41:34;;;;;;;4.60;1.38;;;11.40;91.20;;;;;;5136084;28;20012;-74
2022/12/26 09:44:18;;;;;;;5.38;1.25;;;11.40;91.50;;;;;;5135043;28;20080;-74
2022/12/26 09:46:44;;;;;;;3.35;1.42;;;11.30;91.70;;;;;;5136031;27;20028;-74
2022/12/26 09:49:15;;;;;;;3.10;1.90;;;11.30;91.50;;;;;;5134929;28;20028;-73
2022/12/26 09:51:45;;;;;;;2.38;1.38;;;11.30;91.70;;;;;;5135935;28;20073;-74
2022/12/26 09:54:17;;;;;;;2.58;1.75;;;11.30;91.70;;;;;;5135783;28;20026;-74
2022/12/26 09:56:45;;;;;;;;;;;11.30;91.50;;;;;;5136257;28;20108;-74
2022/12/26 09:59:18;;;;;;;2.15;0.70;;;11.30;91.60;;;;;;5135778;28;19903;-73
2022/12/26 10:01:47;;;;;;;4.85;1.50;;;11.30;91.70;;;;;;5135711;28;20095;-73
2022/12/26 10:04:24;;;;;;;2.05;1.05;;;11.30;91.60;;;;;;5135029;28;20050;-74
2022/12/26 10:07:39;;;;;;;3.00;1.50;;;11.30;91.80;;;;;;5134723;28;20036;-74
2022/12/26 10:10:13;;;;;;;3.03;0.80;;;11.30;91.60;;;;;;5134592;28;20047;-74
2022/12/26 10:13:00;;;;;;;4.47;1.40;;;11.30;91.60;;;;;;5134573;28;20060;-74
2022/12/26 10:15:28;;;;;;;4.07;1.58;;;11.30;91.70;;;;;;5135463;28;20024;-74
2022/12/26 10:18:19;;;;;;;2.72;1.60;;;11.20;91.60;;;;;;5135175;28;20024;-74
2022/12/26 10:21:04;;;;;;;3.90;1.50;;;11.20;91.60;;;;;;5135467;28;20043;-74
2022/12/26 10:23:31;;;;;;;1.83;1.25;;;11.20;91.50;;;;;;5135253;28;20044;-74
2022/12/26 10:26:22;;;;;;;2.72;1.50;;;11.30;91.50;;;;;;5135187;28;20051;-74
2022/12/26 10:29:01;;;;;;;2.47;1.45;;;11.30;91.60;;;;;;5134156;28;20378;-74
2022/12/26 10:31:37;;;;;;;3.13;1.38;;;11.20;91.50;;;;;;5134173;28;20020;-74
2022/12/26 10:34:10;;;;;;;10.30;1.80;;;11.20;91.70;;;;;;5135186;28;20023;-74
2022/12/26 10:36:44;;;;;;;2.40;1.55;;;11.30;91.40;;;;;;5134935;28;20030;-74
2022/12/26 10:39:25;;;;;;;4.00;1.60;;;11.30;91.50;;;;;;5134988;28;20076;-74
2022/12/26 10:41:55;;;;;;;2.33;1.60;;;11.30;91.50;;;;;;5135096;28;20023;-74
2022/12/26 10:44:21;;;;;;;4.40;1.60;;;11.30;91.80;;;;;;5133877;28;20022;-75
2022/12/26 10:47:08;;;;;;;1.75;0.90;;;11.30;92.00;;;;;;5133805;28;20028;-75
2022/12/26 10:49:34;;;;;;;3.20;1.10;;;11.20;91.70;;;;;;5134909;28;20030;-75
2022/12/26 10:52:01;;;;;;;3.00;0.80;;;11.00;92.40;;;;;;5133843;28;20024;-75
2022/12/26 10:54:28;;;;;;;1.88;0.80;;;10.90;92.10;;;;;;5133706;28;20077;-75
2022/12/26 10:56:57;;;;;;;3.05;0.80;;;10.80;92.20;;;;;;5134598;28;20043;-75
2022/12/26 10:59:53;;;;;;;1.55;0.80;;;10.70;92.30;;;;;;5134608;28;20032;-75
2022/12/26 11:02:28;;;;;;;1.52;0.60;;;10.70;92.20;;;;;;5130416;28;20058;-75
2022/12/26 11:04:57;;;;;;;6.47;1.00;;;10.60;92.10;;;;;;5134417;28;20035;-74
2022/12/26 11:07:25;;;;;;;4.38;1.08;;;10.60;92.20;;;;;;5134293;28;20053;-74
2022/12/26 11:09:57;;;;;;;4.75;1.00;;;10.50;92.40;;;;;;5133272;28;20040;-74
2022/12/26 11:12:50;;;;;;;3.28;1.23;;;10.50;92.20;;;;;;5133369;28;20059;-74
2022/12/26 11:15:37;;;;;;;5.32;0.98;;;10.60;92.40;;;;;;5133437;28;20039;-74
2022/12/26 11:18:16;;;;;;;4.13;1.10;;;10.60;92.20;;;;;;5133227;28;20047;-74
2022/12/26 11:20:43;;;;;;;3.50;1.08;;;10.50;92.50;;;;;;5134212;28;20027;-74
2022/12/26 11:23:20;;;;;;;6.05;1.30;;;10.50;92.50;;;;;;5133231;28;20087;-74
2022/12/26 11:25:53;;;;;;;7.53;1.60;;;10.50;92.70;;;;;;5133231;28;20020;-74
2022/12/26 11:28:26;;;;;;;8.98;1.85;;;10.50;92.80;;;;;;5133201;28;20023;-74
2022/12/26 11:30:51;;;;;;;;;;;10.50;92.60;;;;;;5134548;28;20031;-75
2022/12/26 11:33:23;;;;;;;7.68;1.70;;;10.50;92.80;;;;;;5134136;28;19994;-74
2022/12/26 11:36:14;;;;;;;9.60;1.65;;;10.40;92.80;;;;;;5134248;28;20132;-74
2022/12/26 11:38:59;;;;;;;4.80;1.60;;;10.40;92.70;;;;;;5121625;28;20122;-74
2022/12/26 11:41:30;;;;;;;4.65;1.50;;;10.40;92.30;;;;;;5132866;28;20054;-74
2022/12/26 11:44:27;;;;;;;6.43;2.05;;;10.30;91.90;;;;;;5133935;28;20038;-74
2022/12/26 11:46:58;;;;;;;12.70;1.65;;;10.30;91.40;;;;;;5126198;28;20042;-74
2022/12/26 11:49:31;;;;;;;7.93;1.90;;;10.30;91.50;;;;;;5133895;28;20031;-74
2022/12/26 11:51:57;;;;;;;;;;;10.30;90.80;;;;;;5133209;28;20031;-74
2022/12/26 11:54:35;;;;;;;4.68;1.55;;;10.20;90.40;;;;;;5132862;28;19911;-74
2022/12/26 11:57:28;;;;;;;4.05;1.02;;;10.20;90.60;;;;;;5133925;28;20027;-74
2022/12/26 11:59:54;;;;;;;;;;;10.20;90.60;;;;;;5134326;28;20171;-74
2022/12/26 12:02:30;;;;;;;4.97;1.38;;;10.20;89.40;;;;;;5132774;28;19915;-74
2022/12/26 12:05:05;;;;;;;2.58;1.23;;;10.20;90.10;;;;;;5132804;28;20027;-74
2022/12/26 12:07:40;;;;;;;4.72;1.20;;;10.20;90.00;;;;;;5132810;28;20019;-74
2022/12/26 12:10:11;;;;;;;5.80;1.55;;;10.20;90.40;;;;;;5132807;28;20031;-74
2022/12/26 12:13:05;;;;;;;8.17;1.20;;;10.20;89.10;;;;;;5133657;28;20020;-74
2022/12/26 12:15:39;;;;;;;4.88;1.20;;;10.10;89.20;;;;;;5133737;28;20318;-74
2022/12/26 12:18:45;;;;;;;3.88;1.05;;;10.10;88.10;;;;;;5132528;28;20044;-74
2022/12/26 12:21:11;;;;;;;4.75;1.30;;;10.10;88.00;;;;;;5130894;28;20032;-74
2022/12/26 12:24:05;;;;;;;8.52;1.70;;;10.10;87.80;;;;;;5133610;28;20027;-74
2022/12/26 12:27:02;;;;;;;7.18;1.35;;;10.10;87.40;;;;;;5135110;28;20079;-74
2022/12/26 12:30:02;;;;;;;3.28;1.13;;;10.20;87.60;;;;;;5136556;28;20034;-74
2022/12/26 12:32:36;;;;;;;4.35;1.20;;;10.10;86.00;;;;;;5137450;28;20083;-74
2022/12/26 12:35:17;;;;;;;4.22;0.90;;;10.10;85.60;;;;;;5136697;28;20059;-75
2022/12/26 12:37:58;;;;;;;6.05;1.77;;;10.10;86.60;;;;;;5137449;28;20028;-74
2022/12/26 12:40:45;;;;;;;4.78;1.20;;;10.10;85.30;;;;;;5137371;28;20031;-74
2022/12/26 12:43:52;;;;;;;4.10;1.13;;;10.20;84.20;;;;;;5136259;28;20035;-75
2022/12/26 12:46:36;;;;;;;11.82;1.80;;;10.20;84.10;;;;;;5105544;28;20545;-74
2022/12/26 12:49:14;;;;;;;3.25;1.00;;;10.20;83.90;;;;;;5136238;28;20044;-74
2022/12/26 12:51:54;;;;;;;8.15;1.77;;;10.30;84.20;;;;;;5136099;28;20030;-74
2022/12/26 12:55:02;;;;;;;2.55;0.82;;;10.30;84.90;;;;;;5135900;28;20073;-74
2022/12/26 12:57:48;;;;;;;3.03;1.10;;;10.20;83.00;;;;;;5136921;28;20023;-74
2022/12/26 13:00:20;;;;;;;5.53;1.45;;;10.20;83.90;;;;;;5135276;28;20028;-74
2022/12/26 13:02:54;;;;;;;;;;;10.20;84.50;;;;;;5136224;28;20020;-74
2022/12/26 13:05:29;;;;;;;2.72;1.08;;;10.20;84.20;;;;;;5136950;28;19969;-74
2022/12/26 13:08:06;;;;;;;6.03;1.50;;;10.20;85.00;;;;;;5136673;28;20088;-74
2022/12/26 13:10:37;;;;;;;5.25;1.55;;;10.20;85.30;;;;;;5135759;28;20062;-74
2022/12/26 13:13:41;;;;;;;7.38;1.40;;;10.20;84.30;;;;;;5136631;28;20043;-75
2022/12/26 13:16:32;;;;;;;3.80;1.33;;;10.10;83.50;;;;;;5105286;28;20028;-74
2022/12/26 13:19:01;;;;;;;5.28;1.17;;;10.10;83.60;;;;;;5136414;28;20100;-74
2022/12/26 13:21:31;;;;;;;5.65;1.60;;;10.00;84.00;;;;;;5136644;27;20019;-74
2022/12/26 13:24:24;;;;;;;4.63;1.27;;;9.90;83.40;;;;;;5136464;28;20024;-74
2022/12/26 13:26:49;;;;;;;;;;;9.80;83.50;;;;;;5137002;28;20020;-74
2022/12/26 13:29:41;;;;;;;6.13;1.60;;;9.80;82.10;;;;;;5136195;28;19944;-74
2022/12/26 13:32:22;;;;;;;8.37;1.40;;;9.80;83.30;;;;;;5134897;28;20062;-74
2022/12/26 13:34:49;;;;;;;5.45;1.75;;;9.80;84.20;;;;;;5136333;28;20331;-74
2022/12/26 13:37:36;;;;;;;5.38;1.60;;;9.80;84.10;;;;;;5134751;28;20024;-74
2022/12/26 13:40:18;;;;;;;6.90;1.40;;;10.00;84.30;;;;;;5135955;28;20030;-76
2022/12/26 13:45:56;;;;;;;6.50;1.60;;;10.10;83.10;;;;;;5135136;28;20047;-76
2022/12/26 13:48:25;;;;;;;4.30;1.30;;;10.00;82.40;;;;;;5135020;28;20020;-76
2022/12/26 13:50:58;;;;;;;4.15;1.38;;;9.90;82.40;;;;;;5134989;28;20388;-75
2022/12/26 13:53:24;;;;;;;2.85;1.20;;;9.90;83.80;;;;;;5135948;28;20023;-75
2022/12/26 13:55:52;;;;;;;6.00;1.20;;;9.80;83.10;;;;;;5135778;28;20125;-76
2022/12/26 13:58:24;;;;;;;3.72;1.23;;;9.80;82.30;;;;;;5135749;28;20027;-76
2022/12/26 14:00:53;;;;;;;5.93;1.20;;;9.70;81.30;;;;;;5134756;28;20455;-76
2022/12/26 14:03:43;;;;;;;2.78;0.98;;;9.70;81.70;;;;;;5134669;28;20031;-76
2022/12/26 14:06:28;;;;;;;3.85;1.23;;;9.70;80.60;;;;;;5135788;28;20047;-75
2022/12/26 14:09:04;;;;;;;2.83;0.95;;;9.60;81.00;;;;;;5135432;28;20020;-75
2022/12/26 14:11:59;;;;;;;4.20;1.45;;;9.60;81.50;;;;;;5135676;28;20037;-75
2022/12/26 14:15:02;;;;;;;5.10;1.00;;;9.50;81.10;;;;;;5134364;28;20032;-75
2022/12/26 14:17:47;;;;;;;1.80;1.02;;;9.60;81.00;;;;;;5135432;28;20482;-76
2022/12/26 14:20:50;;;;;;;1.95;0.90;;;9.60;80.40;;;;;;5135335;28;20038;-75
2022/12/26 14:23:16;;;;;;;6.15;1.73;;;9.70;80.10;;;;;;5135166;28;20024;-76
2022/12/26 14:26:03;;;;;;;5.65;1.20;;;9.60;79.60;;;;;;5135173;28;20153;-75
2022/12/26 14:28:31;;;;;;;3.28;1.00;;;9.50;80.50;;;;;;5135125;28;20027;-75
2022/12/26 14:31:34;;;;;;;3.03;1.30;;;9.50;80.70;;;;;;5134051;28;20027;-75
2022/12/26 14:34:12;;;;;;;;;;;9.50;79.80;;;;;;5134381;28;20038;-75
2022/12/26 14:37:13;;;;;;;4.38;1.80;;;9.40;80.80;;;;;;5134037;28;19903;-75
2022/12/26 14:40:03;;;;;;;4.28;1.58;;;9.30;81.10;;;;;;5133933;28;20039;-75
2022/12/26 14:45:29;;;;;;;3.38;1.10;;;9.20;81.00;;;;;;5134970;28;20191;-74
2022/12/26 14:47:55;;;;;;;3.92;1.10;;;9.20;81.10;;;;;;5134777;28;20056;-73
2022/12/26 14:50:39;;;;;;;4.35;1.20;;;9.20;81.80;;;;;;5116526;28;20034;-74
2022/12/26 14:53:23;;;;;;;2.47;1.08;;;9.20;82.00;;;;;;5134473;28;20031;-74
2022/12/26 14:55:55;;;;;;;4.50;1.20;;;9.20;81.70;;;;;;5134877;28;20035;-74
2022/12/26 14:58:41;;;;;;;2.58;0.90;;;9.20;81.70;;;;;;5133630;28;20016;-74
2022/12/26 15:01:14;;;;;;;2.17;0.70;;;9.20;81.60;;;;;;5134552;28;20102;-74
2022/12/26 15:03:57;;;;;;;3.20;0.70;;;9.20;81.00;;;;;;5134844;28;20023;-74
2022/12/26 15:06:45;;;;;;;1.33;0.63;;;9.20;79.10;;;;;;5133457;28;20394;-74
2022/12/26 15:09:44;;;;;;;1.45;0.70;;;9.10;77.60;;;;;;5133222;28;20031;-73
2022/12/26 15:12:44;;;;;;;3.55;0.82;;;9.10;77.90;;;;;;5134416;28;20043;-73
2022/12/26 15:15:26;;;;;;;5.80;0.73;;;9.00;78.50;;;;;;5134372;28;20028;-74
2022/12/26 15:18:23;;;;;;;2.90;0.60;;;8.90;76.70;;;;;;5134164;28;20026;-74
2022/12/26 15:21:11;;;;;;;1.95;0.52;;;8.80;76.30;;;;;;5133231;28;20091;-73
2022/12/26 15:23:57;;;;;;;4.55;1.10;;;8.70;76.80;;;;;;5134138;28;20024;-73
2022/12/26 15:26:25;;;;;;;2.63;1.17;;;8.60;77.30;;;;;;5133169;28;20019;-74